Time;durP1;ratioP1;P1;durP2;ratioP2;P2;SDS_P1;SDS_P2;PMS_P1;PMS_P2;Temp;Humidity;BMP_temperature;BMP_pressure;BME280_temperature;BME280_humidity;BME280_pressure;Samples;Min_cycle;Max_cycle;Signal;HPM_P1;HPM_P2
2022/12/08 06:30:34;;;;;;;21.62;12.75;;;;;;;0.28;91.40;99469.70;1823119;78;22730;-38
2022/12/08 06:33:01;;;;;;;27.50;12.68;;;;;;;0.35;90.61;99466.66;1791746;79;21006;-38
2022/12/08 06:35:28;;;;;;;27.05;14.73;;;;;;;0.35;90.96;99475.98;1797935;79;21229;-38
2022/12/08 06:37:55;;;;;;;52.85;34.35;;;;;;;0.40;91.15;99476.71;1797668;79;20916;-38
2022/12/08 06:40:21;;;;;;;30.90;21.48;;;;;;;0.48;90.86;99478.48;1797857;79;20940;-38
2022/12/08 06:42:48;;;;;;;26.62;13.08;;;;;;;0.52;90.44;99478.95;1797761;79;21023;-38
2022/12/08 12:47:55;;;;;;;22.35;16.50;;;;;;;1.28;85.99;99523.06;1755116;80;22086;-38
2022/12/08 12:50:48;;;;;;;25.08;17.57;;;;;;;1.45;85.00;99520.63;1746048;81;20952;-38
2022/12/08 12:53:21;;;;;;;24.18;16.12;;;;;;;1.44;84.94;99521.72;1761316;81;21125;-38
2022/12/08 12:55:59;;;;;;;25.02;17.12;;;;;;;1.46;85.00;99522.73;1752835;81;21509;-38
2022/12/08 12:58:34;;;;;;;27.87;18.20;;;;;;;1.58;84.72;99523.06;1751993;81;20964;-38
2022/12/08 13:01:22;;;;;;;29.00;19.40;;;;;;;1.69;84.16;99523.89;1752979;81;20972;-38
2022/12/08 13:04:08;;;;;;;31.77;17.62;;;;;;;0.36;83.31;99315.72;1753233;81;20969;-38
2022/12/08 13:06:42;;;;;;;33.28;19.35;;;;;;;1.75;83.17;99531.27;1752958;81;21256;-38
2022/12/08 13:09:29;;;;;;;31.77;17.65;;;;;;;1.69;82.63;99531.14;1751944;81;21671;-39
2022/12/08 13:12:09;;;;;;;21.48;15.45;;;;;;;1.59;82.16;99530.79;1752764;81;21001;-40
2022/12/08 13:14:45;;;;;;;25.25;15.98;;;;;;;1.56;81.80;99523.88;1725645;81;21721;-39
2022/12/08 13:17:15;;;;;;;27.15;17.07;;;;;;;1.56;81.28;99530.02;1721393;81;20992;-40
2022/12/08 13:19:41;;;;;;;24.98;17.12;;;;;;;1.59;81.13;99530.79;1726193;81;21843;-40
2022/12/08 13:22:50;;;;;;;25.97;17.27;;;;;;;1.58;80.94;99536.42;1752672;81;21540;-40
2022/12/08 13:25:45;;;;;;;24.50;16.07;;;;;;;1.58;80.82;99534.55;1752919;81;21075;-39
2022/12/08 13:28:20;;;;;;;22.50;15.25;;;;;;;1.55;80.70;99545.03;1752720;81;21044;-39
2022/12/08 13:31:01;;;;;;;23.70;16.00;;;;;;;1.58;80.47;99535.87;1752750;81;21072;-39
2022/12/08 13:33:39;;;;;;;28.40;16.57;;;;;;;1.69;80.19;99534.58;1752720;81;23126;-40
2022/12/08 13:36:34;;;;;;;29.80;17.52;;;;;;;1.73;79.76;99537.47;1752629;81;20964;-40
2022/12/08 13:39:01;;;;;;;34.45;18.37;;;;;;;1.72;79.61;99531.88;1752825;81;21024;-39
2022/12/08 13:41:40;;;;;;;42.00;20.30;;;;;;;1.69;79.37;99540.49;1752632;81;21479;-40
2022/12/08 13:44:15;;;;;;;31.77;19.48;;;;;;;1.67;79.24;99548.80;1752989;81;21019;-40
2022/12/08 13:46:50;;;;;;;34.73;21.37;;;;;;;1.66;79.07;99545.08;1759161;81;21647;-40
2022/12/08 13:49:33;;;;;;;36.73;21.27;;;;;;;1.64;78.38;99537.91;1738919;81;21051;-40
2022/12/08 13:52:00;;;;;;;36.38;20.70;;;;;;;1.50;78.16;99542.45;1747411;82;21447;-39
2022/12/08 13:54:35;;;;;;;36.05;21.73;;;;;;;1.40;78.53;99540.76;1747235;82;21023;-40
2022/12/08 13:57:05;;;;;;;35.25;20.60;;;;;;;1.37;78.82;99541.87;1746892;81;21044;-40
2022/12/08 13:59:37;;;;;;;29.20;18.12;;;;;;;1.41;78.83;99544.20;1747105;82;23146;-40
2022/12/08 14:02:17;;;;;;;31.07;20.20;;;;;;;1.47;78.66;99545.70;1746296;82;21003;-40
2022/12/08 14:04:46;;;;;;;48.80;22.32;;;;;;;1.51;78.44;99546.69;1719965;82;21076;-40
2022/12/08 14:07:13;;;;;;;43.87;23.12;;;;;;;1.43;78.25;99544.16;1763398;81;21355;-40
2022/12/08 14:09:40;;;;;;;35.78;19.65;;;;;;;1.31;77.98;99555.31;1731773;82;20949;-40
2022/12/08 14:12:21;;;;;;;33.33;19.75;;;;;;;1.20;78.00;99555.25;1763547;81;21149;-40
2022/12/08 14:15:00;;;;;;;30.45;19.20;;;;;;;1.19;78.13;99560.88;1731718;82;21577;-40
2022/12/08 14:17:27;;;;;;;34.92;19.40;;;;;;;1.19;78.05;99560.34;1763572;81;21023;-40
2022/12/08 14:20:01;;;;;;;49.73;20.17;;;;;;;1.16;78.27;99570.25;1758803;81;21526;-40
2022/12/08 14:22:34;;;;;;;36.53;19.60;;;;;;;1.12;78.37;99567.12;1747017;82;22082;-40
2022/12/08 14:25:01;;;;;;;31.97;17.82;;;;;;;1.05;78.39;99569.38;1747427;82;21139;-40
2022/12/08 14:27:34;;;;;;;30.20;18.85;;;;;;;1.01;78.44;99567.84;1731737;82;20897;-40
2022/12/08 14:30:07;;;;;;;32.88;18.32;;;;;;;1.03;78.46;99568.88;1763663;81;20995;-40
2022/12/08 14:32:52;;;;;;;26.45;17.45;;;;;;;1.04;78.50;99566.45;1758824;81;21027;-40
2022/12/08 14:35:34;;;;;;;35.13;17.62;;;;;;;0.99;78.54;99559.33;1746835;81;21123;-40
2022/12/08 14:38:04;;;;;;;24.82;15.70;;;;;;;0.94;78.73;99560.73;1747191;82;21220;-40
2022/12/08 14:40:39;;;;;;;;;;;;;;;0.95;78.87;99565.00;1750019;82;20941;-40
2022/12/08 14:43:17;;;;;;;23.73;14.90;;;;;;;1.01;78.73;99560.38;1746947;82;20121;-40
2022/12/08 14:45:47;;;;;;;28.27;16.25;;;;;;;0.96;79.03;99559.13;1762469;81;21553;-40
2022/12/08 14:48:36;;;;;;;19.15;12.05;;;;;;;0.99;79.02;99567.88;1759048;81;21520;-40
2022/12/08 14:51:06;;;;;;;17.40;10.45;;;;;;;0.99;78.66;99561.20;1737941;81;23128;-40
2022/12/08 14:53:43;;;;;;;15.88;10.90;;;;;;;0.96;78.46;99561.25;1731801;82;21011;-40
2022/12/08 14:56:24;;;;;;;15.93;11.48;;;;;;;0.99;78.32;99563.33;1763543;81;21023;-40
2022/12/08 14:59:13;;;;;;;19.30;11.68;;;;;;;1.04;78.13;99567.80;1731814;82;20945;-40
2022/12/08 15:01:41;;;;;;;22.90;12.37;;;;;;;0.97;78.16;99569.48;1763601;81;21716;-40
2022/12/08 15:04:16;;;;;;;24.70;12.40;;;;;;;0.94;78.41;99567.95;1731805;82;21109;-40
2022/12/08 15:07:09;;;;;;;17.32;12.23;;;;;;;0.96;78.29;99567.13;1730964;82;21578;-40
2022/12/08 15:09:45;;;;;;;23.32;12.00;;;;;;;0.96;78.22;99565.80;1763137;81;21020;-40
2022/12/08 15:12:20;;;;;;;27.80;15.58;;;;;;;1.05;78.26;99571.52;1731890;82;21529;-40
2022/12/08 15:15:10;;;;;;;28.85;14.98;;;;;;;1.09;78.23;99561.83;1763707;81;21039;-40
2022/12/08 15:17:46;;;;;;;22.42;11.43;;;;;;;1.03;78.10;99562.99;1733417;82;23161;-40
2022/12/08 15:20:45;;;;;;;21.87;12.82;;;;;;;0.96;78.18;99563.92;1763948;80;21051;-40
2022/12/08 15:23:31;;;;;;;24.67;15.05;;;;;;;0.96;78.00;99563.92;1763417;81;21007;-40
2022/12/08 15:25:58;;;;;;;25.40;13.18;;;;;;;0.90;77.91;99565.61;1731626;82;20992;-40
2022/12/08 15:28:27;;;;;;;28.62;14.55;;;;;;;0.82;78.39;99563.08;1763616;81;21090;-40
2022/12/08 15:30:54;;;;;;;22.37;13.60;;;;;;;0.79;78.46;99557.77;1759254;81;20985;-40
2022/12/08 15:33:20;;;;;;;23.15;13.50;;;;;;;0.73;78.39;99562.12;1746904;82;20910;-40
2022/12/08 15:35:48;;;;;;;19.10;13.40;;;;;;;0.73;78.39;99566.12;1731812;82;20953;-40
2022/12/08 15:38:31;;;;;;;29.57;14.55;;;;;;;0.75;78.63;99559.42;1763390;81;21526;-40
2022/12/08 15:40:57;;;;;;;22.17;13.72;;;;;;;0.74;78.79;99561.04;1757776;81;21059;-40
2022/12/08 15:43:24;;;;;;;22.00;13.65;;;;;;;0.67;78.97;99564.63;1747006;82;21142;-40
2022/12/08 15:45:51;;;;;;;18.35;12.23;;;;;;;0.67;79.13;99567.30;1747010;82;21017;-40
2022/12/08 15:48:20;;;;;;;18.25;12.85;;;;;;;0.71;79.08;99574.44;1746612;81;20993;-40
2022/12/08 15:50:46;;;;;;;22.98;14.15;;;;;;;0.74;79.17;99567.71;1746515;82;21502;-40
2022/12/08 15:53:13;;;;;;;21.20;13.68;;;;;;;0.75;79.17;99579.98;1728798;83;21084;-40
2022/12/08 15:55:40;;;;;;;17.12;12.63;;;;;;;0.72;78.96;99577.90;1751937;81;21121;-40
2022/12/08 15:58:07;;;;;;;20.30;12.28;;;;;;;0.71;79.01;99581.64;1752083;81;20992;-40
2022/12/08 16:00:36;;;;;;;18.12;13.20;;;;;;;0.78;78.95;99580.72;1752050;81;20953;-40
2022/12/08 16:03:03;;;;;;;22.95;13.75;;;;;;;0.79;78.76;99580.98;1751988;81;20945;-40
2022/12/08 16:05:30;;;;;;;21.80;13.85;;;;;;;0.74;78.79;99583.19;1752166;81;21038;-40
2022/12/08 16:07:57;;;;;;;20.77;13.98;;;;;;;0.70;78.84;99572.84;1752054;81;21245;-40
2022/12/08 16:10:25;;;;;;;23.07;14.98;;;;;;;0.72;78.99;99572.56;1751942;81;20953;-40
2022/12/08 16:15:40;;;;;;;26.50;16.57;;;;;;;0.84;78.80;99567.56;1752203;81;21538;-40
2022/12/08 16:18:13;;;;;;;25.72;14.63;;;;;;;0.81;78.85;99572.16;1752370;81;21084;-40
2022/12/08 16:20:40;;;;;;;22.52;15.83;;;;;;;0.82;78.93;99563.08;1750990;81;21120;-40
2022/12/08 16:23:07;;;;;;;27.05;16.37;;;;;;;0.84;78.79;99562.23;1752194;81;20937;-40
2022/12/08 16:25:33;;;;;;;32.88;18.77;;;;;;;0.88;78.70;99565.90;1752266;81;20965;-40
2022/12/08 16:28:00;;;;;;;27.30;17.42;;;;;;;0.92;78.66;99562.89;1752372;81;21040;-40
2022/12/08 16:30:27;;;;;;;33.18;18.17;;;;;;;0.93;78.74;99563.15;1752253;81;21088;-40
2022/12/08 16:32:53;;;;;;;31.05;18.27;;;;;;;0.93;78.77;99559.14;1752573;81;21212;-40
2022/12/08 16:35:20;;;;;;;26.00;16.65;;;;;;;0.98;78.55;99556.94;1752218;81;21111;-40
2022/12/08 16:37:47;;;;;;;26.45;17.35;;;;;;;1.02;78.28;99553.39;1752075;81;20985;-40
2022/12/08 16:40:14;;;;;;;28.65;19.17;;;;;;;1.02;78.24;99557.39;1700961;81;21021;-40
2022/12/08 16:42:42;;;;;;;36.15;18.80;;;;;;;1.02;78.35;99551.27;1751987;81;21087;-40
2022/12/08 16:45:16;;;;;;;28.20;18.02;;;;;;;0.99;78.31;99551.31;1752141;81;21097;-40
2022/12/08 16:47:48;;;;;;;26.60;17.30;;;;;;;0.96;78.17;99559.92;1757530;81;21489;-40
2022/12/08 16:50:20;;;;;;;27.00;17.65;;;;;;;0.96;78.05;99554.58;1732971;82;21023;-40
2022/12/08 16:52:47;;;;;;;23.73;15.53;;;;;;;0.99;77.96;99548.64;1763289;81;21027;-40
2022/12/08 16:55:17;;;;;;;27.07;17.42;;;;;;;1.00;78.08;99547.57;1763093;81;20980;-40
2022/12/08 16:57:45;;;;;;;25.57;16.42;;;;;;;0.95;78.01;99548.98;1760898;81;26847;-40
2022/12/08 17:00:15;;;;;;;24.12;15.13;;;;;;;0.87;77.94;99539.74;1746729;82;20945;-40
2022/12/08 17:02:42;;;;;;;26.87;16.25;;;;;;;0.82;78.04;99535.05;1746772;82;21511;-40
2022/12/08 17:05:13;;;;;;;32.93;16.75;;;;;;;0.82;78.01;99535.05;1746756;82;21518;-40
2022/12/08 17:07:45;;;;;;;27.25;16.73;;;;;;;0.82;78.14;99535.05;1746562;82;21586;-40
2022/12/08 17:10:15;;;;;;;29.05;17.80;;;;;;;0.81;78.31;99540.14;1731465;82;21247;-40
2022/12/08 17:12:42;;;;;;;24.63;16.77;;;;;;;0.80;78.46;99535.33;1763261;81;21033;-40
2022/12/08 17:15:15;;;;;;;28.47;17.98;;;;;;;0.84;78.36;99530.20;1731454;82;21115;-40
2022/12/08 17:17:42;;;;;;;27.95;17.32;;;;;;;0.89;78.19;99526.12;1731553;82;21040;-40
2022/12/08 17:20:12;;;;;;;27.00;16.37;;;;;;;0.87;78.23;99526.40;1763389;81;21481;-40
2022/12/08 17:22:39;;;;;;;19.73;12.45;;;;;;;0.83;78.22;99528.61;1731893;82;21223;-40
2022/12/08 17:25:07;;;;;;;18.35;11.95;;;;;;;0.76;78.08;99528.20;1731680;82;21069;-40
2022/12/08 17:27:35;;;;;;;21.20;14.07;;;;;;;0.74;78.12;99529.81;1763565;81;21000;-40
2022/12/08 17:30:04;;;;;;;21.97;14.18;;;;;;;0.80;78.09;99523.86;1761023;81;21066;-40
2022/12/08 17:32:30;;;;;;;22.60;13.48;;;;;;;0.81;78.12;99515.58;1747193;82;21010;-40
2022/12/08 17:34:57;;;;;;;21.23;13.65;;;;;;;0.81;78.14;99520.12;1746977;82;21791;-40
2022/12/08 17:37:23;;;;;;;23.32;13.48;;;;;;;0.80;78.11;99519.33;1746676;82;20993;-40
2022/12/08 17:39:50;;;;;;;20.45;12.82;;;;;;;0.80;78.01;99518.53;1746844;82;21032;-40
2022/12/08 17:42:17;;;;;;;20.35;12.80;;;;;;;0.82;77.89;99517.14;1731598;82;21076;-40
2022/12/08 17:44:45;;;;;;;25.25;13.03;;;;;;;0.86;78.06;99526.17;1763279;81;21802;-40
2022/12/08 17:47:12;;;;;;;22.35;12.20;;;;;;;0.86;78.04;99520.04;1731136;82;21138;-40
2022/12/08 17:49:39;;;;;;;19.65;12.88;;;;;;;0.86;78.01;99525.38;1729100;83;21079;-40
2022/12/08 17:52:06;;;;;;;24.43;13.60;;;;;;;0.88;77.84;99520.52;1729208;82;20972;-40
2022/12/08 17:54:32;;;;;;;20.12;12.60;;;;;;;0.92;77.64;99524.19;1729167;82;21052;-40
2022/12/08 17:56:59;;;;;;;24.37;12.50;;;;;;;0.90;77.88;99522.91;1716788;83;21023;-40
2022/12/08 17:59:26;;;;;;;22.77;13.40;;;;;;;0.90;77.98;99522.91;1729177;82;21217;-40
2022/12/08 18:01:54;;;;;;;22.15;12.33;;;;;;;0.90;77.97;99520.24;1729452;83;21012;-40
2022/12/08 18:04:21;;;;;;;19.12;12.70;;;;;;;0.84;77.92;99523.53;1729498;82;21727;-40
2022/12/08 18:06:48;;;;;;;21.37;13.05;;;;;;;0.85;78.03;99524.58;1729558;83;21025;-40
2022/12/08 18:09:15;;;;;;;24.18;14.25;;;;;;;0.86;78.09;99524.05;1724041;83;21057;-40
2022/12/08 18:11:43;;;;;;;27.70;14.03;;;;;;;0.82;78.11;99527.05;1729364;83;21177;-40
2022/12/08 18:14:09;;;;;;;20.62;12.98;;;;;;;0.79;78.33;99520.94;1729402;82;21004;-40
2022/12/08 18:16:40;;;;;;;22.55;13.58;;;;;;;0.80;78.26;99527.33;1717083;83;20953;-40
2022/12/08 18:19:07;;;;;;;21.27;13.72;;;;;;;0.84;78.28;99516.31;1729284;83;20993;-40
2022/12/08 18:21:34;;;;;;;26.55;15.13;;;;;;;0.84;78.39;99510.98;1729189;82;21088;-40
2022/12/08 18:24:01;;;;;;;27.65;14.43;;;;;;;0.85;78.61;99512.57;1729313;83;21265;-40
